createdAt,value
2019-04-26T00:03:35.312Z,29.75
2019-04-26T00:05:39.329Z,26.73
2019-04-26T00:07:43.333Z,32.15
2019-04-26T00:12:03.312Z,26.85
2019-04-26T00:14:25.558Z,28.27
2019-04-26T00:16:33.512Z,22.58
2019-04-26T00:18:39.433Z,20.43
2019-04-26T00:20:42.424Z,27.07
2019-04-26T00:24:48.976Z,29.48
2019-04-26T00:26:52.549Z,28.45
2019-04-26T00:30:58.941Z,24.43
2019-04-26T00:35:06.870Z,27.60
2019-04-26T00:37:10.460Z,25.15
2019-04-26T00:41:18.537Z,22.32
2019-04-26T00:43:23.557Z,33.55
2019-04-26T00:45:30.250Z,27.27
2019-04-26T00:47:35.077Z,30.23
2019-04-26T00:49:43.810Z,30.00
2019-04-26T00:51:44.406Z,43.95
2019-04-26T00:53:49.050Z,42.80
2019-04-26T00:55:53.268Z,56.50
2019-04-26T00:57:57.107Z,67.87
2019-04-26T01:00:01.955Z,81.28
2019-04-26T01:02:23.195Z,85.50
2019-04-26T01:04:26.837Z,96.05
2019-04-26T01:10:37.668Z,97.33
2019-04-26T01:14:44.182Z,104.17
2019-04-26T01:18:52.406Z,103.67
2019-04-26T01:20:58.213Z,105.92
2019-04-26T01:23:04.708Z,103.83
2019-04-26T01:25:10.117Z,102.35
2019-04-26T01:27:16.975Z,91.45
2019-04-26T01:29:23.773Z,81.92
2019-04-26T01:31:30.793Z,84.30
2019-04-26T01:33:36.569Z,75.03
2019-04-26T01:35:40.529Z,75.75
2019-04-26T01:37:46.978Z,71.87
2019-04-26T01:39:55.505Z,63.90
2019-04-26T01:42:04.230Z,65.52
2019-04-26T01:44:12.925Z,61.40
2019-04-26T01:46:23.218Z,56.50
2019-04-26T01:48:46.215Z,42.85
2019-04-26T01:50:50.239Z,37.60
2019-04-26T01:52:54.977Z,40.45
2019-04-26T01:54:58.645Z,37.53
2019-04-26T02:05:27.899Z,36.00
2019-04-26T02:07:38.507Z,28.60
2019-04-26T02:09:42.217Z,31.77
2019-04-26T02:11:45.957Z,27.58
2019-04-26T02:13:49.768Z,31.00
2019-04-26T02:15:53.420Z,28.35
2019-04-26T02:20:00.321Z,29.90
2019-04-26T02:22:15.795Z,28.80
2019-04-26T02:24:34.352Z,27.55
2019-04-26T02:26:41.525Z,24.82
2019-04-26T02:28:45.265Z,28.70
2019-04-26T02:30:49.395Z,31.35
2019-04-26T02:32:53.238Z,24.18
2019-04-26T02:34:57.249Z,25.50
2019-04-26T02:37:04.045Z,26.82
2019-04-26T02:39:22.592Z,25.52
2019-04-26T02:41:28.133Z,24.98
2019-04-26T02:43:33.876Z,25.68
2019-04-26T02:46:04.135Z,27.77
2019-04-26T02:48:18.178Z,24.82
2019-04-26T02:52:38.757Z,25.23
2019-04-26T02:54:47.948Z,28.20
2019-04-26T02:56:54.590Z,27.80
2019-04-26T02:59:01.281Z,22.62
2019-04-26T03:01:04.998Z,27.07
2019-04-26T03:05:12.185Z,25.75
2019-04-26T03:07:18.827Z,32.17
2019-04-26T03:09:23.132Z,26.27
2019-04-26T03:11:31.459Z,34.10
2019-04-26T03:13:40.219Z,29.15
2019-04-26T03:15:57.505Z,30.27
2019-04-26T03:18:21.518Z,26.68
2019-04-26T03:20:28.219Z,28.40
2019-04-26T03:22:49.909Z,28.55
2019-04-26T03:25:02.209Z,29.92
2019-04-26T03:27:29.325Z,25.08
2019-04-26T03:29:37.453Z,31.27
2019-04-26T03:31:55.154Z,28.73
2019-04-26T03:34:07.223Z,27.85
2019-04-26T03:36:37.486Z,29.72
2019-04-26T03:38:50.980Z,27.25
2019-04-26T03:41:08.205Z,26.90
2019-04-26T03:43:20.394Z,26.85
2019-04-26T03:45:27.057Z,28.40
2019-04-26T03:47:40.879Z,26.97
2019-04-26T03:50:02.901Z,27.42
2019-04-26T03:52:30.304Z,28.90
2019-04-26T03:54:37.961Z,27.48
2019-04-26T03:56:47.109Z,27.82
2019-04-26T03:59:19.398Z,25.00
2019-04-26T04:01:25.508Z,31.20
2019-04-26T04:03:55.079Z,26.25
2019-04-26T04:06:02.428Z,29.12
2019-04-26T04:08:09.086Z,26.12
2019-04-26T04:10:21.617Z,31.82
2019-04-26T04:12:42.178Z,30.60
2019-04-26T04:14:53.996Z,32.05
2019-04-26T04:17:04.871Z,27.02
2019-04-26T04:19:31.390Z,25.85
2019-04-26T04:21:54.639Z,28.87
2019-04-26T04:24:09.783Z,30.95
2019-04-26T04:26:16.425Z,28.12
2019-04-26T04:28:42.523Z,24.85
2019-04-26T04:30:51.940Z,30.72
2019-04-26T04:33:10.914Z,26.70
2019-04-26T04:35:16.361Z,26.37
2019-04-26T04:37:23.006Z,27.80
2019-04-26T04:39:38.645Z,26.50
2019-04-26T04:42:01.702Z,29.35
2019-04-26T04:44:37.214Z,32.48
2019-04-26T04:47:22.907Z,38.63
2019-04-26T04:49:28.173Z,35.40
2019-04-26T04:51:57.551Z,27.85
2019-04-26T04:54:13.086Z,27.17
2019-04-26T04:56:43.624Z,28.70
2019-04-26T04:58:59.285Z,27.45
2019-04-26T05:01:32.011Z,33.13
2019-04-26T05:03:54.056Z,34.13
2019-04-26T05:06:07.578Z,30.95
2019-04-26T05:08:21.225Z,38.42
2019-04-26T05:10:33.920Z,32.85
2019-04-26T05:12:57.434Z,27.48
2019-04-26T05:15:22.154Z,37.73
2019-04-26T05:17:55.767Z,26.97
2019-04-26T05:20:23.413Z,30.70
2019-04-26T05:22:47.298Z,29.00
2019-04-26T05:25:16.829Z,29.95
2019-04-26T05:27:33.876Z,36.93
2019-04-26T05:30:01.806Z,34.65
2019-04-26T05:32:11.532Z,34.60
2019-04-26T05:34:19.825Z,33.15
2019-04-26T05:36:43.081Z,31.00
2019-04-26T05:38:53.243Z,30.57
2019-04-26T05:41:18.706Z,28.38
2019-04-26T05:43:49.133Z,30.95
2019-04-26T05:46:06.603Z,31.00
2019-04-26T05:48:26.621Z,29.25
2019-04-26T05:50:51.920Z,26.02
2019-04-26T05:53:12.366Z,31.17
2019-04-26T05:55:35.091Z,30.72
2019-04-26T05:57:58.571Z,30.75
2019-04-26T06:00:27.909Z,37.95
2019-04-26T06:03:04.969Z,39.20
2019-04-26T06:05:22.003Z,31.52
2019-04-26T06:08:15.628Z,35.35
2019-04-26T06:10:25.382Z,32.03
2019-04-26T06:12:42.118Z,29.35
2019-04-26T06:14:59.292Z,28.87
2019-04-26T06:17:10.447Z,29.30
2019-04-26T06:19:23.973Z,31.35
2019-04-26T06:21:39.059Z,25.20
2019-04-26T06:23:48.417Z,27.48
2019-04-26T06:26:36.706Z,32.15
2019-04-26T06:29:03.289Z,22.32
2019-04-26T06:31:16.188Z,34.63
2019-04-26T06:33:34.972Z,31.40
2019-04-26T06:35:42.512Z,29.45
2019-04-26T06:38:05.568Z,25.02
2019-04-26T06:40:15.055Z,26.55
2019-04-26T06:42:36.754Z,24.12
2019-04-26T06:44:50.889Z,26.77
2019-04-26T06:47:13.511Z,29.40
2019-04-26T06:49:22.063Z,24.70
2019-04-26T06:52:02.582Z,25.60
2019-04-26T06:54:16.096Z,27.55
2019-04-26T06:56:47.189Z,35.05
2019-04-26T06:59:08.692Z,28.17
2019-04-26T07:01:22.718Z,26.70
2019-04-26T07:03:29.364Z,26.23
2019-04-26T07:05:36.088Z,29.20
2019-04-26T07:07:54.567Z,26.20
2019-04-26T07:10:04.586Z,29.20
2019-04-26T07:12:27.941Z,29.90
2019-04-26T07:14:51.270Z,27.37
2019-04-26T07:17:07.805Z,23.65
2019-04-26T07:19:53.561Z,26.05
2019-04-26T07:22:35.664Z,26.48
2019-04-26T07:24:54.955Z,24.85
2019-04-26T07:27:25.965Z,24.30
2019-04-26T07:29:41.672Z,23.60
2019-04-26T07:32:07.334Z,24.57
2019-04-26T07:34:24.605Z,26.80
2019-04-26T07:36:37.186Z,25.20
2019-04-26T07:39:13.755Z,21.12
2019-04-26T07:41:28.208Z,16.95
2019-04-26T07:43:59.452Z,20.88
2019-04-26T07:46:32.058Z,21.60
2019-04-26T07:49:10.690Z,25.48
2019-04-26T07:51:44.050Z,26.25
2019-04-26T07:54:06.696Z,21.12
2019-04-26T07:56:37.288Z,17.95
2019-04-26T07:59:10.673Z,23.67
2019-04-26T08:01:37.245Z,20.52
2019-04-26T08:04:17.051Z,21.35
2019-04-26T08:06:23.690Z,21.77
2019-04-26T08:08:30.355Z,18.10
2019-04-26T08:10:37.029Z,24.10
2019-04-26T08:12:44.030Z,25.43
2019-04-26T08:15:09.492Z,29.10
2019-04-26T08:17:32.570Z,18.77
2019-04-26T08:19:42.074Z,17.02
2019-04-26T08:21:49.159Z,29.12
2019-04-26T08:24:02.728Z,22.77
2019-04-26T08:26:09.634Z,20.25
2019-04-26T08:28:16.524Z,18.85
2019-04-26T08:30:22.698Z,21.60
2019-04-26T08:32:32.156Z,21.12
2019-04-26T08:34:37.435Z,18.60
2019-04-26T08:36:45.117Z,14.78
2019-04-26T08:38:52.578Z,21.07
2019-04-26T08:40:55.529Z,20.72
2019-04-26T08:43:18.476Z,22.02
2019-04-26T08:45:35.579Z,17.30
2019-04-26T08:47:50.281Z,27.02
2019-04-26T08:49:57.403Z,18.30
2019-04-26T08:52:13.898Z,17.55
2019-04-26T08:54:11.810Z,24.52
2019-04-26T08:56:20.327Z,20.08
2019-04-26T08:58:26.165Z,10.98
2019-04-26T09:00:40.078Z,17.50
2019-04-26T09:04:56.945Z,15.30
2019-04-26T09:07:05.256Z,24.70
2019-04-26T09:09:18.196Z,19.00
2019-04-26T09:11:25.976Z,15.83
2019-04-26T09:13:30.214Z,20.27
2019-04-26T09:15:59.615Z,16.77
2019-04-26T09:18:06.051Z,19.15
2019-04-26T09:20:09.716Z,21.70
2019-04-26T09:22:18.413Z,17.60
2019-04-26T09:24:24.900Z,16.87
2019-04-26T09:26:48.446Z,15.63
2019-04-26T09:29:05.959Z,17.73
2019-04-26T09:31:21.055Z,25.50
2019-04-26T09:33:26.373Z,15.40
2019-04-26T09:35:30.122Z,14.53
2019-04-26T09:37:33.689Z,24.15
2019-04-26T09:39:41.685Z,17.35
2019-04-26T09:41:45.731Z,10.68
2019-04-26T09:43:50.956Z,23.67
2019-04-26T09:45:56.221Z,14.65
2019-04-26T09:48:01.512Z,17.55
2019-04-26T09:50:17.329Z,20.32
2019-04-26T09:52:31.937Z,17.48
2019-04-26T09:54:35.500Z,14.00
2019-04-26T09:56:39.145Z,17.42
2019-04-26T09:58:42.733Z,14.18
2019-04-26T10:00:48.649Z,14.68
2019-04-26T10:02:51.724Z,17.82
2019-04-26T10:04:55.437Z,16.05
2019-04-26T10:06:59.620Z,16.17
2019-04-26T10:09:09.437Z,18.90
2019-04-26T10:11:14.721Z,18.95
2019-04-26T10:13:28.705Z,9.98
2019-04-26T10:15:38.916Z,17.73
2019-04-26T10:17:42.400Z,16.27
2019-04-26T10:19:47.952Z,13.32
2019-04-26T10:21:51.568Z,17.05
2019-04-26T10:23:55.346Z,17.73
2019-04-26T10:25:58.971Z,22.35
2019-04-26T10:28:02.549Z,15.15
2019-04-26T10:30:09.693Z,14.40
2019-04-26T10:32:13.393Z,22.52
2019-04-26T10:34:17.021Z,18.77
2019-04-26T10:36:20.796Z,23.02
2019-04-26T10:38:25.475Z,23.65
2019-04-26T10:40:35.383Z,24.52
2019-04-26T10:42:34.436Z,24.52
2019-04-26T10:44:39.879Z,18.50
2019-04-26T10:46:55.058Z,20.88
2019-04-26T10:48:49.710Z,15.00
2019-04-26T10:50:53.785Z,18.17
2019-04-26T10:52:59.007Z,18.67
2019-04-26T10:55:22.521Z,13.90
2019-04-26T10:57:30.554Z,22.67
2019-04-26T10:59:39.757Z,18.23
2019-04-26T11:01:44.718Z,15.05
2019-04-26T11:03:48.290Z,30.62
2019-04-26T11:05:53.692Z,20.62
2019-04-26T11:07:58.325Z,22.62
2019-04-26T11:10:03.019Z,20.80
2019-04-26T11:12:09.048Z,21.68
2019-04-26T11:14:12.653Z,25.35
2019-04-26T11:16:16.382Z,12.70
2019-04-26T11:18:27.049Z,16.48
2019-04-26T11:20:25.205Z,19.67
2019-04-26T11:22:29.619Z,16.17
2019-04-26T11:24:34.225Z,19.77
2019-04-26T11:26:37.897Z,18.48
2019-04-26T11:28:42.067Z,13.38
2019-04-26T11:30:48.071Z,16.17
2019-04-26T11:32:51.099Z,15.55
2019-04-26T11:34:58.592Z,10.98
2019-04-26T11:36:59.970Z,25.20
2019-04-26T11:39:07.392Z,14.47
2019-04-26T11:41:10.763Z,21.33
2019-04-26T11:43:15.792Z,13.95
2019-04-26T11:45:19.560Z,11.55
2019-04-26T11:47:23.143Z,14.35
2019-04-26T11:49:26.736Z,19.92
2019-04-26T11:51:30.300Z,16.62
2019-04-26T11:53:33.981Z,22.27
2019-04-26T11:55:37.566Z,16.27
2019-04-26T11:57:43.669Z,17.48
2019-04-26T11:59:46.438Z,16.67
2019-04-26T12:01:50.114Z,16.85
2019-04-26T12:04:11.713Z,16.02
2019-04-26T12:06:21.345Z,12.20
2019-04-26T12:08:35.509Z,16.45
2019-04-26T12:10:40.432Z,19.57
2019-04-26T12:12:47.098Z,19.45
2019-04-26T12:14:49.932Z,16.95
2019-04-26T12:16:58.854Z,15.95
2019-04-26T12:18:58.728Z,13.08
2019-04-26T12:21:02.337Z,12.28
2019-04-26T12:23:05.910Z,15.88
2019-04-26T12:25:09.804Z,17.90
2019-04-26T12:27:13.426Z,15.13
2019-04-26T12:29:17.069Z,19.65
2019-04-26T12:31:20.675Z,17.75
2019-04-26T12:33:24.265Z,17.45
2019-04-26T12:35:29.999Z,17.50
2019-04-26T12:37:33.061Z,15.78
2019-04-26T12:39:38.175Z,14.80
2019-04-26T12:41:42.106Z,15.75
2019-04-26T12:43:45.932Z,11.60
2019-04-26T12:46:07.370Z,8.50
2019-04-26T12:48:18.913Z,13.00
2019-04-26T12:50:22.554Z,16.37
2019-04-26T12:52:26.169Z,13.25
2019-04-26T12:54:29.831Z,14.50
2019-04-26T12:56:33.642Z,15.18
2019-04-26T12:58:37.297Z,13.83
2019-04-26T13:00:53.227Z,15.18
2019-04-26T13:02:46.212Z,14.93
2019-04-26T13:04:49.818Z,19.95
2019-04-26T13:06:55.034Z,11.85
2019-04-26T13:08:58.634Z,8.78
2019-04-26T13:11:07.427Z,11.00
2019-04-26T13:13:13.474Z,12.35
2019-04-26T13:15:50.441Z,11.75
2019-04-26T13:17:53.988Z,17.65
2019-04-26T13:19:57.574Z,15.63
2019-04-26T13:22:01.172Z,13.30
2019-04-26T13:24:06.196Z,15.93
2019-04-26T13:26:09.901Z,11.95
2019-04-26T13:28:15.691Z,14.83
2019-04-26T13:30:18.903Z,13.00
2019-04-26T13:32:22.507Z,15.75
2019-04-26T13:34:26.070Z,13.83
2019-04-26T13:36:30.634Z,18.05
2019-04-26T13:38:34.463Z,21.30
2019-04-26T13:40:40.197Z,16.52
2019-04-26T13:42:43.425Z,15.60
2019-04-26T13:44:52.961Z,11.65
2019-04-26T13:47:13.231Z,23.52
2019-04-26T13:49:19.387Z,12.60
2019-04-26T13:51:27.697Z,9.95
2019-04-26T13:53:31.284Z,14.73
2019-04-26T13:55:36.428Z,9.98
2019-04-26T13:57:40.151Z,12.10
2019-04-26T13:59:45.485Z,12.55
2019-04-26T14:01:49.178Z,10.30
2019-04-26T14:03:52.933Z,10.93
2019-04-26T14:05:56.923Z,16.02
2019-04-26T14:08:00.873Z,15.00
2019-04-26T14:10:06.516Z,10.68
2019-04-26T14:12:18.468Z,11.80
2019-04-26T14:14:15.778Z,12.23
2019-04-26T14:16:21.255Z,7.55
2019-04-26T14:18:24.689Z,11.88
2019-04-26T14:20:31.209Z,11.35
2019-04-26T14:22:36.986Z,8.75
2019-04-26T14:24:53.002Z,11.35
2019-04-26T14:26:59.436Z,23.67
2019-04-26T14:29:03.259Z,9.83
2019-04-26T14:31:06.998Z,12.30
2019-04-26T14:33:10.556Z,9.23
2019-04-26T14:35:15.573Z,8.63
2019-04-26T14:37:19.460Z,12.20
2019-04-26T14:39:33.886Z,11.65
2019-04-26T14:41:28.345Z,11.65
2019-04-26T14:43:40.741Z,10.00
2019-04-26T14:45:40.026Z,14.15
2019-04-26T14:47:47.618Z,12.37
2019-04-26T14:49:47.627Z,7.42
2019-04-26T14:51:55.844Z,10.08
2019-04-26T14:53:56.470Z,9.75
2019-04-26T14:56:00.040Z,11.33
2019-04-26T14:58:03.693Z,10.23
2019-04-26T15:00:09.923Z,10.30
2019-04-26T15:02:15.138Z,14.65
2019-04-26T15:04:33.073Z,18.57
2019-04-26T15:06:38.336Z,13.40
2019-04-26T15:08:46.863Z,14.87
2019-04-26T15:10:49.111Z,16.20
2019-04-26T15:12:58.581Z,19.25
2019-04-26T15:14:57.829Z,17.67
2019-04-26T15:17:02.773Z,19.15
2019-04-26T15:19:09.743Z,16.52
2019-04-26T15:21:12.878Z,13.35
2019-04-26T15:23:19.361Z,13.60
2019-04-26T15:25:21.837Z,17.90
2019-04-26T15:27:25.443Z,11.38
2019-04-26T15:29:29.051Z,11.45
2019-04-26T15:31:33.131Z,14.90
2019-04-26T15:33:36.843Z,12.47
2019-04-26T15:35:42.067Z,8.78
2019-04-26T15:37:45.825Z,10.50
2019-04-26T15:39:58.390Z,17.75
2019-04-26T15:42:13.105Z,9.75
2019-04-26T15:44:20.255Z,7.17
2019-04-26T15:46:48.336Z,8.15
2019-04-26T15:48:54.082Z,12.23
2019-04-26T15:50:55.949Z,8.78
2019-04-26T15:52:59.550Z,10.40
2019-04-26T15:55:05.421Z,8.63
2019-04-26T15:57:08.440Z,16.05
2019-04-26T15:59:12.809Z,11.97
2019-04-26T16:01:16.567Z,8.93
2019-04-26T16:03:20.269Z,12.43
2019-04-26T16:05:29.313Z,13.32
2019-04-26T16:07:29.301Z,8.55
2019-04-26T16:09:32.953Z,12.65
2019-04-26T16:11:36.905Z,13.95
2019-04-26T16:13:40.578Z,14.85
2019-04-26T16:15:48.675Z,12.85
2019-04-26T16:17:49.852Z,16.75
2019-04-26T16:19:56.054Z,12.75
2019-04-26T16:21:58.992Z,10.43
2019-04-26T16:24:02.850Z,15.60
2019-04-26T16:26:08.341Z,19.15
2019-04-26T16:28:16.033Z,16.42
2019-04-26T16:30:22.996Z,17.48
2019-04-26T16:32:28.324Z,12.28
2019-04-26T16:34:33.542Z,17.80
2019-04-26T16:36:42.185Z,17.00
2019-04-26T16:38:42.552Z,12.18
2019-04-26T16:40:50.735Z,20.57
2019-04-26T16:42:56.571Z,14.05
2019-04-26T16:45:00.568Z,14.53
2019-04-26T16:47:05.754Z,11.63
2019-04-26T16:49:11.461Z,14.83
2019-04-26T16:51:14.457Z,14.60
2019-04-26T16:53:37.868Z,12.07
2019-04-26T16:55:24.692Z,11.10
2019-04-26T16:57:28.130Z,16.73
2019-04-26T16:59:32.866Z,14.98
2019-04-26T17:01:38.222Z,18.77
2019-04-26T17:03:46.501Z,36.65
2019-04-26T17:05:48.600Z,20.65
2019-04-26T17:07:53.936Z,18.45
2019-04-26T17:09:59.658Z,15.98
2019-04-26T17:12:03.148Z,16.55
2019-04-26T17:14:10.098Z,17.00
2019-04-26T17:16:12.850Z,18.02
2019-04-26T17:18:19.322Z,15.85
2019-04-26T17:20:21.811Z,19.25
2019-04-26T17:22:41.927Z,19.00
2019-04-26T17:24:38.069Z,14.38
2019-04-26T17:26:53.138Z,31.48
2019-04-26T17:28:56.806Z,22.55
2019-04-26T17:31:02.047Z,15.93
2019-04-26T17:33:05.848Z,18.20
2019-04-26T17:35:09.558Z,21.50
2019-04-26T17:37:17.223Z,15.13
2019-04-26T17:39:18.533Z,15.43
2019-04-26T17:41:22.109Z,20.80
2019-04-26T17:43:25.684Z,17.05
2019-04-26T17:45:30.626Z,15.25
2019-04-26T17:47:36.743Z,19.48
2019-04-26T17:49:43.421Z,21.20
2019-04-26T17:51:44.867Z,16.32
2019-04-26T17:53:49.493Z,17.02
2019-04-26T17:55:54.921Z,21.85
2019-04-26T17:58:11.537Z,20.90
2019-04-26T18:00:11.239Z,24.05
2019-04-26T18:02:31.525Z,26.30
2019-04-26T18:04:31.582Z,19.80
2019-04-26T18:06:29.531Z,18.07
2019-04-26T18:08:40.741Z,29.27
2019-04-26T18:10:35.601Z,19.00
2019-04-26T18:12:40.847Z,18.45
2019-04-26T18:14:44.311Z,16.45
2019-04-26T18:16:49.547Z,15.98
2019-04-26T18:19:05.163Z,22.75
2019-04-26T18:21:28.845Z,24.00
2019-04-26T18:23:33.923Z,25.95
2019-04-26T18:25:37.588Z,17.57
2019-04-26T18:29:44.057Z,16.67
2019-04-26T18:31:47.736Z,20.15
2019-04-26T18:33:54.837Z,17.17
2019-04-26T18:35:57.520Z,27.13
2019-04-26T18:38:01.303Z,18.85
2019-04-26T18:42:08.993Z,26.23
2019-04-26T18:44:13.808Z,26.97
2019-04-26T18:46:19.273Z,26.02
2019-04-26T18:48:23.634Z,18.45
2019-04-26T18:50:28.486Z,16.65
2019-04-26T18:52:34.326Z,23.18
2019-04-26T18:54:39.549Z,25.45
2019-04-26T18:56:44.755Z,19.77
2019-04-26T18:58:51.338Z,21.97
2019-04-26T19:00:57.280Z,21.55
2019-04-26T19:03:00.076Z,16.85
2019-04-26T19:05:05.574Z,16.70
2019-04-26T19:07:12.040Z,29.42
2019-04-26T19:09:16.609Z,22.42
2019-04-26T19:11:21.789Z,20.95
2019-04-26T19:13:36.442Z,15.60
2019-04-26T19:15:41.846Z,17.98
2019-04-26T19:18:00.151Z,25.30
2019-04-26T19:20:17.136Z,21.15
2019-04-26T19:22:22.431Z,22.95
2019-04-26T19:24:26.154Z,19.73
2019-04-26T19:26:33.039Z,19.00
2019-04-26T19:28:36.030Z,20.37
2019-04-26T19:30:48.842Z,20.02
2019-04-26T19:32:45.660Z,21.02
2019-04-26T19:36:52.509Z,21.60
2019-04-26T19:38:56.164Z,29.82
2019-04-26T19:40:59.838Z,28.30
2019-04-26T19:43:07.645Z,15.38
2019-04-26T19:45:16.726Z,21.37
2019-04-26T19:47:26.382Z,27.42
2019-04-26T19:49:33.470Z,29.98
2019-04-26T19:51:52.200Z,24.80
2019-04-26T19:54:12.730Z,18.42
2019-04-26T19:56:27.770Z,24.25
2019-04-26T19:58:33.217Z,22.30
2019-04-26T20:00:38.483Z,26.33
2019-04-26T20:02:42.424Z,20.82
2019-04-26T20:04:46.020Z,16.62
2019-04-26T20:06:52.399Z,23.12
2019-04-26T20:08:54.844Z,19.87
2019-04-26T20:13:02.568Z,26.60
2019-04-26T20:15:15.359Z,23.18
2019-04-26T20:17:20.102Z,27.67
2019-04-26T20:19:32.423Z,25.43
2019-04-26T20:21:25.504Z,30.30
2019-04-26T20:25:31.986Z,23.20
2019-04-26T20:27:35.776Z,19.75
2019-04-26T20:29:40.706Z,28.62
2019-04-26T20:31:47.902Z,24.07
2019-04-26T20:33:54.726Z,25.60
2019-04-26T20:36:03.408Z,24.02
2019-04-26T20:38:04.880Z,19.35
2019-04-26T20:40:18.539Z,26.50
2019-04-26T20:42:14.290Z,31.55
2019-04-26T20:44:23.845Z,21.70
2019-04-26T20:46:25.104Z,26.90
2019-04-26T20:48:30.061Z,26.12
2019-04-26T20:50:36.787Z,15.48
2019-04-26T20:52:39.458Z,21.30
2019-04-26T20:54:46.579Z,22.98
2019-04-26T20:56:52.567Z,22.73
2019-04-26T20:58:57.441Z,23.15
2019-04-26T21:01:01.451Z,21.17
2019-04-26T21:03:06.202Z,22.95
2019-04-26T21:05:11.218Z,22.02
2019-04-26T21:07:15.754Z,28.62
2019-04-26T21:09:21.834Z,24.20
2019-04-26T21:11:25.357Z,25.30
2019-04-26T21:13:30.717Z,27.20
2019-04-26T21:15:36.070Z,32.42
2019-04-26T21:17:41.374Z,22.58
2019-04-26T21:19:45.402Z,24.98
2019-04-26T21:21:50.454Z,29.48
2019-04-26T21:23:54.517Z,29.65
2019-04-26T21:26:07.173Z,18.57
2019-04-26T21:28:12.386Z,18.23
2019-04-26T21:30:33.695Z,15.35
2019-04-26T21:32:40.727Z,26.37
2019-04-26T21:34:50.535Z,16.85
2019-04-26T21:37:03.418Z,23.52
2019-04-26T21:39:21.805Z,14.73
2019-04-26T21:41:27.086Z,13.48
2019-04-26T21:43:34.683Z,19.90
2019-04-26T21:45:36.262Z,20.35
2019-04-26T21:47:39.966Z,12.28
2019-04-26T21:49:43.678Z,8.93
2019-04-26T21:51:51.252Z,20.60
2019-04-26T21:53:52.916Z,12.60
2019-04-26T21:55:56.867Z,19.20
2019-04-26T21:58:00.629Z,12.37
2019-04-26T22:00:10.249Z,13.18
2019-04-26T22:02:14.124Z,16.57
2019-04-26T22:04:17.703Z,11.78
2019-04-26T22:08:27.716Z,7.22
2019-04-26T22:10:39.528Z,14.98
2019-04-26T22:12:43.228Z,12.50
2019-04-26T22:15:03.482Z,16.30
2019-04-26T22:17:08.818Z,11.68
2019-04-26T22:19:21.552Z,12.85
2019-04-26T22:21:38.444Z,17.50
2019-04-26T22:23:43.743Z,14.55
2019-04-26T22:25:52.114Z,15.68
2019-04-26T22:28:00.240Z,12.58
2019-04-26T22:30:03.171Z,11.57
2019-04-26T22:32:06.638Z,16.95
2019-04-26T22:34:10.260Z,14.70
2019-04-26T22:36:13.942Z,21.10
2019-04-26T22:38:23.636Z,16.42
2019-04-26T22:40:23.402Z,23.00
2019-04-26T22:42:28.114Z,25.12
2019-04-26T22:44:34.600Z,25.60
2019-04-26T22:46:49.660Z,22.00
2019-04-26T22:49:01.066Z,19.85
2019-04-26T22:51:00.421Z,21.52
2019-04-26T22:53:04.131Z,20.00
2019-04-26T22:55:07.977Z,16.07
2019-04-26T22:57:13.105Z,19.17
2019-04-26T22:59:16.829Z,21.52
2019-04-26T23:03:24.082Z,23.42
2019-04-26T23:05:30.629Z,25.43
2019-04-26T23:07:33.283Z,27.42
2019-04-26T23:09:36.973Z,29.57
2019-04-26T23:14:04.568Z,22.58
2019-04-26T23:16:11.393Z,27.82
2019-04-26T23:18:26.114Z,32.30
2019-04-26T23:20:37.854Z,23.70
2019-04-26T23:22:39.649Z,30.12
2019-04-26T23:26:47.704Z,24.90
2019-04-26T23:30:54.274Z,30.40
2019-04-26T23:32:57.845Z,20.50
2019-04-26T23:37:06.332Z,26.25
2019-04-26T23:39:12.145Z,20.23
2019-04-26T23:41:15.411Z,18.17
2019-04-26T23:45:23.488Z,19.23
2019-04-26T23:49:29.915Z,16.07
2019-04-26T23:53:37.715Z,21.23
2019-04-26T23:57:45.838Z,16.95
